Time;durP1;ratioP1;P1;durP2;ratioP2;P2;SDS_P1;SDS_P2;PMS_P1;PMS_P2;Temp;Humidity;BMP_temperature;BMP_pressure;BME280_temperature;BME280_humidity;BME280_pressure;Samples;Min_cycle;Max_cycle;Signal;HPM_P1;HPM_P2
2021/05/11 00:01:14;;;;;;;2.80;2.60;;;;;;;10.91;38.53;100416.95;1789308;79;21137;-72
2021/05/11 00:03:44;;;;;;;3.67;3.08;;;;;;;11.26;37.88;100420.98;1824412;78;21128;-78
2021/05/11 00:06:12;;;;;;;3.42;2.37;;;;;;;11.45;38.21;100413.56;1806393;78;21003;-69
2021/05/11 00:08:40;;;;;;;3.83;2.58;;;;;;;11.49;37.82;100411.51;1779116;80;21246;-69
2021/05/11 00:11:09;;;;;;;4.70;3.47;;;;;;;11.59;36.94;100414.94;1798144;79;21600;-70
2021/05/11 00:13:36;;;;;;;8.58;3.60;;;;;;;11.68;37.24;100416.20;1795533;79;21101;-71
2021/05/11 00:16:06;;;;;;;4.15;3.12;;;;;;;11.70;37.04;100417.58;1765059;79;21650;-74
2021/05/11 00:18:36;;;;;;;3.22;2.92;;;;;;;11.73;36.81;100410.41;1811912;78;21157;-71
2021/05/11 00:21:05;;;;;;;3.47;2.90;;;;;;;11.76;36.22;100413.14;1783944;78;22623;-70
2021/05/11 00:23:33;;;;;;;3.58;2.80;;;;;;;11.78;36.37;100409.17;1755798;79;21129;-72
2021/05/11 00:26:03;;;;;;;4.08;2.30;;;;;;;11.81;36.28;100409.20;1764072;79;21034;-69
2021/05/11 00:28:42;;;;;;;5.05;3.30;;;;;;;11.78;36.11;100403.78;1797743;79;21156;-70
2021/05/11 00:31:11;;;;;;;6.22;3.17;;;;;;;11.80;36.36;100393.55;1794908;79;21123;-69
2021/05/11 00:33:39;;;;;;;3.58;2.35;;;;;;;11.79;36.48;100401.91;1799828;78;21201;-70
2021/05/11 00:36:07;;;;;;;2.65;2.45;;;;;;;11.77;36.35;100398.62;1805933;78;21167;-70
2021/05/11 00:38:37;;;;;;;3.42;2.60;;;;;;;11.79;36.22;100392.47;1783684;79;20973;-69
2021/05/11 00:41:05;;;;;;;4.83;2.67;;;;;;;11.76;36.97;100389.71;1801841;78;21215;-70
2021/05/11 00:43:36;;;;;;;3.58;3.22;;;;;;;11.75;36.48;100379.98;1791945;78;21142;-69
2021/05/11 00:46:05;;;;;;;3.47;3.17;;;;;;;11.79;36.60;100381.16;1787208;78;21242;-69
2021/05/11 00:48:32;;;;;;;3.20;2.87;;;;;;;11.79;37.13;100373.60;1798672;79;21127;-70
2021/05/11 00:51:03;;;;;;;3.75;3.00;;;;;;;11.78;36.54;100364.70;1798497;79;20958;-69
2021/05/11 00:53:34;;;;;;;5.92;2.40;;;;;;;11.79;36.81;100370.38;1774341;79;21047;-69
2021/05/11 00:56:05;;;;;;;2.95;2.67;;;;;;;11.76;36.81;100377.58;1765987;79;21156;-74
2021/05/11 00:58:34;;;;;;;2.77;2.10;;;;;;;11.77;36.37;100377.88;1797844;79;21333;-69
2021/05/11 01:01:01;;;;;;;5.75;2.98;;;;;;;11.78;36.29;100376.83;1790294;79;21137;-70
2021/05/11 01:03:31;;;;;;;4.83;3.58;;;;;;;11.79;36.39;100375.77;1780376;79;21116;-71
2021/05/11 01:05:59;;;;;;;3.30;3.00;;;;;;;11.80;36.61;100371.17;1781293;79;21158;-75
2021/05/11 01:08:28;;;;;;;3.35;2.65;;;;;;;11.81;36.23;100364.73;1788637;80;21106;-70
2021/05/11 01:10:56;;;;;;;2.60;2.40;;;;;;;11.81;36.43;100376.86;1784314;79;21215;-69
2021/05/11 01:13:25;;;;;;;3.52;2.47;;;;;;;11.76;36.36;100377.58;1790723;79;21188;-70
2021/05/11 01:15:53;;;;;;;3.92;2.62;;;;;;;11.75;36.69;100374.59;1752546;81;21181;-69
2021/05/11 01:18:31;;;;;;;4.90;3.02;;;;;;;11.76;36.13;100375.41;1772520;78;21144;-73
2021/05/11 01:21:01;;;;;;;4.00;2.90;;;;;;;11.78;36.33;100370.09;1794712;79;21199;-70
2021/05/11 01:29:25;;;;;;;3.30;2.55;;;;;;;11.82;36.30;100379.84;1869021;76;28125;-69
2021/05/11 01:31:35;;;;;;;5.25;3.12;;;;;;;11.77;36.36;100376.53;1813624;77;20932;-70
2021/05/11 01:45:55;;;;;;;3.17;2.92;;;;;;;11.54;37.14;100371.20;1822920;77;21169;-70
2021/05/11 01:50:15;;;;;;;2.85;2.58;;;;;;;11.35;37.89;100377.29;1751325;78;20975;-74
2021/05/11 01:58:21;;;;;;;4.00;2.37;;;;;;;11.43;37.62;100368.53;1785299;78;21606;-70
2021/05/11 02:22:45;;;;;;;3.77;2.85;;;;;;;11.22;38.89;100360.58;1784441;80;21112;-74
2021/05/11 02:25:14;;;;;;;3.10;2.80;;;;;;;11.18;39.07;100364.25;1797932;78;21126;-72
2021/05/11 02:27:43;;;;;;;4.12;2.90;;;;;;;11.15;39.18;100359.88;1737029;81;21380;-72
2021/05/11 02:30:14;;;;;;;5.03;3.02;;;;;;;11.10;39.24;100358.42;1803405;78;21155;-70
2021/05/11 02:32:43;;;;;;;3.17;2.87;;;;;;;11.07;39.23;100363.77;1790029;80;21129;-69
2021/05/11 02:35:14;;;;;;;3.22;2.92;;;;;;;11.07;39.17;100363.77;1757108;80;21136;-74
2021/05/11 02:37:44;;;;;;;3.90;3.37;;;;;;;11.06;39.40;100363.47;1768382;80;21117;-70
2021/05/11 02:40:14;;;;;;;5.30;2.85;;;;;;;11.02;39.41;100352.06;1782348;80;21253;-74
2021/05/11 02:42:45;;;;;;;4.40;3.33;;;;;;;11.04;39.27;100358.84;1775335;80;21148;-73
2021/05/11 02:45:14;;;;;;;4.20;3.17;;;;;;;11.02;39.33;100357.45;1732782;81;21621;-73
2021/05/11 02:47:49;;;;;;;3.92;2.40;;;;;;;11.04;39.27;100360.70;1774346;80;21144;-73
2021/05/11 02:50:27;;;;;;;4.47;3.27;;;;;;;11.01;39.29;100341.83;1771488;80;21116;-69
2021/05/11 02:52:55;;;;;;;6.58;5.83;;;;;;;11.05;39.44;100347.55;1758056;80;21408;-70
2021/05/11 02:55:23;;;;;;;3.50;3.15;;;;;;;11.04;39.27;100341.86;1757401;80;21633;-70
2021/05/11 02:57:51;;;;;;;2.58;2.00;;;;;;;11.08;39.51;100341.16;1766969;80;21063;-70
2021/05/11 03:00:22;;;;;;;3.33;2.72;;;;;;;11.07;39.44;100341.41;1805074;79;21191;-69
2021/05/11 03:02:50;;;;;;;8.08;4.80;;;;;;;11.09;39.30;100338.75;1766813;80;21251;-71
2021/05/11 03:05:19;;;;;;;3.42;2.55;;;;;;;11.10;39.68;100341.75;1801863;79;21198;-70
2021/05/11 03:07:48;;;;;;;4.33;3.15;;;;;;;11.08;39.45;100342.50;1792621;79;21188;-69
2021/05/11 03:10:17;;;;;;;3.98;3.17;;;;;;;11.13;39.22;100347.99;1752988;80;20990;-72
2021/05/11 03:12:46;;;;;;;6.50;3.47;;;;;;;11.15;39.60;100348.59;1774524;80;21120;-69
2021/05/11 03:15:14;;;;;;;2.45;2.20;;;;;;;11.19;39.28;100347.58;1785325;78;21161;-70
2021/05/11 03:17:42;;;;;;;3.85;3.52;;;;;;;11.23;39.18;100349.55;1775069;79;22124;-72
2021/05/11 03:20:32;;;;;;;2.60;2.37;;;;;;;11.27;38.84;100348.57;1774366;79;21176;-71
2021/05/11 03:23:01;;;;;;;2.67;2.12;;;;;;;11.34;38.85;100353.28;1704901;82;21148;-72
2021/05/11 03:25:30;;;;;;;2.72;2.52;;;;;;;11.35;38.63;100347.66;1728199;82;21668;-70
2021/05/11 03:27:59;;;;;;;2.92;2.30;;;;;;;11.41;38.66;100347.77;1729937;82;21123;-70
2021/05/11 03:42:39;;;;;;;5.20;3.00;;;;;;;12.01;38.43;100340.02;1868486;76;22732;-69
2021/05/11 03:45:06;;;;;;;3.70;3.08;;;;;;;12.05;37.96;100346.55;1845817;77;21038;-69
2021/05/11 03:47:45;;;;;;;5.42;2.67;;;;;;;12.19;37.85;100344.66;1846939;76;22659;-71
2021/05/11 03:50:20;;;;;;;6.85;2.60;;;;;;;12.27;37.72;100351.54;1866933;75;22670;-69
2021/05/11 03:53:06;;;;;;;6.17;3.42;;;;;;;12.26;37.49;100351.25;1787042;80;20970;-69
2021/05/11 03:55:41;;;;;;;8.88;7.80;;;;;;;12.37;37.57;100358.98;1889367;76;22562;-69
2021/05/11 03:58:16;;;;;;;3.67;2.95;;;;;;;12.39;37.42;100359.01;1847269;76;22675;-69
2021/05/11 04:00:54;;;;;;;3.12;2.80;;;;;;;12.42;37.34;100358.50;1833180;75;22655;-71
2021/05/11 04:03:29;;;;;;;3.52;2.60;;;;;;;12.46;37.54;100356.16;1846531;75;22824;-67
2021/05/11 04:06:04;;;;;;;9.50;5.58;;;;;;;12.48;37.27;100359.41;1844065;76;22644;-68
2021/05/11 04:08:56;;;;;;;3.70;2.98;;;;;;;12.42;37.39;100359.86;1814894;78;20971;-69
2021/05/11 04:17:20;;;;;;;3.62;2.67;;;;;;;12.43;38.09;100369.59;1860169;77;21046;-69
2021/05/11 04:19:55;;;;;;;4.40;3.17;;;;;;;12.50;38.21;100360.81;1807161;79;22753;-74
2021/05/11 04:22:29;;;;;;;4.72;2.62;;;;;;;12.51;38.27;100363.81;1846430;76;22660;-72
2021/05/11 04:25:05;;;;;;;5.30;2.67;;;;;;;12.54;38.48;100359.78;1776427;79;22948;-68
2021/05/11 04:27:51;;;;;;;4.12;3.00;;;;;;;12.51;38.69;100362.98;1748251;82;21043;-70
2021/05/11 04:30:26;;;;;;;7.37;3.45;;;;;;;12.59;38.67;100351.24;1856181;76;22808;-69
2021/05/11 04:33:01;;;;;;;3.75;2.92;;;;;;;12.64;38.71;100350.50;1847147;76;22620;-68
2021/05/11 04:35:36;;;;;;;3.12;2.80;;;;;;;12.70;38.72;100352.75;1847197;76;22610;-72
2021/05/11 04:38:11;;;;;;;6.72;2.67;;;;;;;12.75;38.86;100344.73;1828814;77;22654;-69
2021/05/11 04:40:45;;;;;;;4.53;2.72;;;;;;;12.80;39.03;100346.15;1847209;76;22639;-69
2021/05/11 04:43:34;;;;;;;5.03;2.95;;;;;;;12.81;39.22;100347.23;1785341;79;21031;-70
2021/05/11 04:46:23;;;;;;;7.50;3.20;;;;;;;12.93;39.55;100341.73;1835562;77;38091;-67
2021/05/11 04:48:49;;;;;;;8.08;3.37;;;;;;;13.03;39.57;100340.53;1846388;76;22706;-69
2021/05/11 04:51:36;;;;;;;3.52;3.12;;;;;;;13.05;39.77;100343.78;1785012;80;21050;-69
2021/05/11 04:54:10;;;;;;;3.80;2.60;;;;;;;13.16;39.12;100334.78;1889388;76;22514;-68
2021/05/11 04:56:47;;;;;;;3.22;2.92;;;;;;;13.23;39.13;100338.66;1889286;76;23214;-74
2021/05/11 04:59:35;;;;;;;3.25;2.27;;;;;;;13.24;38.90;100323.52;1757249;81;21177;-68
2021/05/11 05:02:11;;;;;;;6.65;3.10;;;;;;;13.36;38.62;100322.06;1813372;77;22691;-69
2021/05/11 05:04:46;;;;;;;4.22;2.55;;;;;;;13.42;38.04;100325.93;1873091;76;27400;-68
2021/05/11 05:07:21;;;;;;;4.78;3.85;;;;;;;13.51;38.39;100325.76;1840176;76;22710;-68
2021/05/11 05:09:55;;;;;;;4.45;2.35;;;;;;;13.62;38.13;100326.66;1889307;76;22573;-68
2021/05/11 05:12:45;;;;;;;4.53;3.30;;;;;;;13.64;37.97;100319.66;1860121;77;21113;-73
2021/05/11 05:15:20;;;;;;;4.15;2.45;;;;;;;13.77;37.98;100320.59;1815282;79;22566;-68
2021/05/11 05:17:55;;;;;;;6.15;2.87;;;;;;;13.84;37.77;100315.28;1883372;76;22725;-73
2021/05/11 05:20:31;;;;;;;3.70;2.50;;;;;;;13.94;38.03;100317.27;1808492;77;28328;-69
2021/05/11 05:23:06;;;;;;;3.87;2.65;;;;;;;14.03;37.69;100318.43;1847281;76;22632;-70
2021/05/11 05:25:43;;;;;;;7.22;2.60;;;;;;;14.13;36.03;100302.83;1847231;76;22665;-70
2021/05/11 05:28:18;;;;;;;4.12;2.40;;;;;;;14.24;36.07;100313.48;1883263;76;22016;-71
2021/05/11 05:31:05;;;;;;;12.25;2.40;;;;;;;14.26;36.47;100309.14;1821739;77;21006;-78
2021/05/11 05:33:40;;;;;;;3.37;2.42;;;;;;;14.41;36.05;100309.30;1776879;79;28296;-70
2021/05/11 05:36:15;;;;;;;2.62;1.92;;;;;;;14.53;34.96;100310.48;1847284;76;22639;-70
2021/05/11 05:38:50;;;;;;;8.98;1.95;;;;;;;14.59;34.63;100313.47;1847298;76;22738;-71
2021/05/11 05:41:25;;;;;;;5.28;2.42;;;;;;;14.65;34.67;100316.49;1847202;76;22610;-69
2021/05/11 05:44:00;;;;;;;3.33;3.02;;;;;;;14.73;34.69;100318.70;1847239;76;22736;-72
2021/05/11 05:46:35;;;;;;;6.47;2.83;;;;;;;14.79;34.72;100321.73;1886646;76;22744;-70
2021/05/11 05:49:10;;;;;;;3.87;2.27;;;;;;;14.87;34.55;100317.72;1889320;76;22565;-68
2021/05/11 05:51:48;;;;;;;3.95;2.35;;;;;;;14.94;33.94;100320.46;1774252;79;22723;-69
2021/05/11 05:54:22;;;;;;;5.57;3.07;;;;;;;15.01;33.63;100314.81;1835587;77;29735;-68
2021/05/11 05:56:58;;;;;;;2.10;1.92;;;;;;;15.11;34.03;100307.53;1851529;77;22644;-72
2021/05/11 05:59:46;;;;;;;4.92;2.52;;;;;;;15.14;32.50;100300.78;1780329;80;21130;-68
2021/05/11 06:02:23;;;;;;;2.40;1.95;;;;;;;15.25;31.92;100307.87;1845851;76;22722;-69
2021/05/11 06:04:58;;;;;;;3.42;2.65;;;;;;;15.32;31.96;100304.37;1868759;75;27739;-68
2021/05/11 06:07:33;;;;;;;6.90;2.77;;;;;;;15.43;32.76;100306.04;1846448;76;22709;-74
2021/05/11 06:10:11;;;;;;;2.60;2.40;;;;;;;15.50;32.94;100305.23;1775698;79;22664;-70
2021/05/11 06:18:30;;;;;;;3.60;1.82;;;;;;;15.79;32.30;100303.42;1847252;76;22639;-70
2021/05/11 06:21:05;;;;;;;7.55;2.35;;;;;;;15.84;30.20;100308.31;1825158;76;22621;-68
2021/05/11 06:23:51;;;;;;;20.95;2.98;;;;;;;15.85;29.88;100309.95;1817185;78;20983;-71
2021/05/11 06:26:26;;;;;;;7.65;2.12;;;;;;;15.95;29.33;100311.86;1889396;76;22659;-68
2021/05/11 06:29:02;;;;;;;6.22;2.30;;;;;;;15.98;28.91;100303.17;1839724;76;22730;-72
2021/05/11 06:31:49;;;;;;;3.35;2.30;;;;;;;15.96;29.16;100317.56;1752689;80;20947;-69
2021/05/11 06:34:24;;;;;;;10.63;3.45;;;;;;;16.01;28.63;100297.22;1881921;76;22672;-68
2021/05/11 06:37:00;;;;;;;4.10;3.00;;;;;;;16.02;28.72;100305.08;1846707;76;22706;-72
2021/05/11 06:39:36;;;;;;;6.90;2.73;;;;;;;16.04;28.76;100305.63;1867833;76;27676;-69
2021/05/11 06:42:12;;;;;;;7.70;2.83;;;;;;;16.08;29.46;100291.78;1815310;79;22571;-69
2021/05/11 06:48:04;;;;;;;5.05;1.85;;;;;;;16.10;30.09;100285.56;1834477;77;21020;-69
2021/05/11 06:50:42;;;;;;;4.95;3.00;;;;;;;16.22;30.23;100277.66;1846272;76;23278;-69
2021/05/11 06:53:15;;;;;;;2.83;2.33;;;;;;;16.26;30.29;100280.91;1847199;76;23238;-68
2021/05/11 06:56:00;;;;;;;5.28;2.33;;;;;;;16.24;29.88;100280.94;1816414;79;21014;-70
2021/05/11 06:58:36;;;;;;;14.33;2.62;;;;;;;16.32;30.63;100289.88;1851587;77;22723;-69
2021/05/11 07:01:14;;;;;;;4.92;2.50;;;;;;;16.38;31.59;100284.72;1776417;79;22848;-69
2021/05/11 07:04:00;;;;;;;3.90;2.45;;;;;;;16.40;31.59;100273.84;1748059;82;20996;-73
2021/05/11 07:06:37;;;;;;;4.12;1.80;;;;;;;16.48;30.59;100282.81;1847137;76;22666;-70
2021/05/11 07:09:15;;;;;;;7.37;2.62;;;;;;;16.50;31.17;100277.90;1834854;77;27874;-68
2021/05/11 07:14:34;;;;;;;3.17;2.35;;;;;;;16.67;31.24;100278.18;1922158;74;23231;-69
2021/05/11 07:17:09;;;;;;;4.92;2.12;;;;;;;16.71;30.94;100280.61;1888115;76;22666;-70
2021/05/11 07:19:56;;;;;;;7.10;2.50;;;;;;;16.69;30.92;100274.66;1786492;80;21069;-69
2021/05/11 07:22:30;;;;;;;27.25;13.30;;;;;;;16.79;31.49;100266.45;1847347;76;22774;-69
2021/05/11 07:25:10;;;;;;;7.03;4.35;;;;;;;16.80;31.37;100267.54;1847328;76;22612;-68
2021/05/11 07:28:08;;;;;;;44.30;19.85;;;;;;;16.82;31.58;100257.22;1889337;76;22864;-68
2021/05/11 07:30:38;;;;;;;11.30;9.13;;;;;;;16.83;31.41;100263.47;1775549;80;21024;-69
2021/05/11 07:33:14;;;;;;;3.27;2.98;;;;;;;16.94;30.90;100244.13;1776626;79;22869;-69
2021/05/11 07:35:49;;;;;;;9.75;5.70;;;;;;;16.97;31.31;100228.64;1847260;76;22582;-69
2021/05/11 07:38:25;;;;;;;50.05;24.30;;;;;;;17.02;31.53;100222.36;1788104;79;22763;-71
2021/05/11 07:41:00;;;;;;;5.93;3.87;;;;;;;17.13;31.92;100219.84;1830924;76;27794;-69
2021/05/11 07:43:38;;;;;;;3.35;2.42;;;;;;;17.27;31.93;100233.08;1889420;76;22505;-69
2021/05/11 07:46:36;;;;;;;3.33;2.27;;;;;;;17.40;31.51;100248.80;1815421;79;21979;-70
2021/05/11 08:29:37;;;;;;;4.03;2.05;;;;;;;18.85;32.68;100210.20;1851122;76;22660;-68
2021/05/11 08:32:12;;;;;;;3.17;2.12;;;;;;;18.93;32.41;100204.13;1856183;76;23185;-70
2021/05/11 08:34:47;;;;;;;3.58;2.20;;;;;;;19.02;31.71;100216.00;1819277;77;22726;-67
2021/05/11 08:37:34;;;;;;;2.55;1.80;;;;;;;19.02;31.40;100204.27;1755738;81;21019;-75
2021/05/11 08:40:11;;;;;;;2.55;2.08;;;;;;;19.07;31.70;100203.66;1847366;76;22605;-70
2021/05/11 08:42:46;;;;;;;2.52;2.08;;;;;;;19.10;32.10;100198.16;1847098;76;23168;-71
2021/05/11 08:45:21;;;;;;;2.37;2.17;;;;;;;19.15;32.22;100194.00;1889251;76;22591;-70
2021/05/11 08:47:56;;;;;;;2.83;1.87;;;;;;;19.24;32.36;100208.59;1847255;76;23240;-68
2021/05/11 08:50:40;;;;;;;4.00;2.42;;;;;;;19.35;32.19;100199.17;1836272;75;22747;-68
2021/05/11 09:05:18;;;;;;;2.58;1.50;;;;;;;19.85;32.31;100162.11;1776356;79;22289;-69
2021/05/11 09:08:08;;;;;;;1.62;1.50;;;;;;;19.89;32.32;100171.31;1748976;82;21633;-67
2021/05/11 09:25:29;;;;;;;1.65;1.45;;;;;;;20.26;32.14;100152.61;1741782;82;21565;-72
2021/05/11 09:31:23;;;;;;;4.15;1.90;;;;;;;20.61;31.66;100142.93;1823859;77;22915;-72
2021/05/11 09:34:14;;;;;;;2.08;1.62;;;;;;;20.65;31.56;100117.16;1847067;76;22537;-68
2021/05/11 10:46:57;;;;;;;1.55;1.20;;;;;;;22.71;30.80;100061.48;1847412;76;22736;-75
2021/05/11 10:49:40;;;;;;;4.35;2.17;;;;;;;22.78;30.75;100064.56;1847312;76;22615;-73
2021/05/11 10:52:38;;;;;;;4.47;2.42;;;;;;;22.78;30.84;100085.13;1800226;79;21538;-75
2021/05/11 10:55:21;;;;;;;1.70;1.50;;;;;;;22.93;30.64;100059.38;1847507;76;22640;-72
2021/05/11 10:57:55;;;;;;;4.08;1.80;;;;;;;23.02;30.56;100052.55;1851901;77;22223;-71
2021/05/11 11:00:46;;;;;;;10.93;5.67;;;;;;;23.14;30.78;100048.57;1873304;76;27797;-69
2021/05/11 11:03:28;;;;;;;3.17;1.95;;;;;;;23.26;30.47;100044.59;1851090;75;21086;-68
2021/05/11 11:06:04;;;;;;;2.77;1.55;;;;;;;23.40;30.21;100042.45;1847106;76;22719;-69
2021/05/11 11:08:42;;;;;;;4.87;2.52;;;;;;;23.46;30.00;100037.07;1834178;77;27814;-69
2021/05/11 11:11:20;;;;;;;2.95;1.98;;;;;;;23.61;30.37;100043.17;1867742;75;27730;-70
2021/05/11 11:14:06;;;;;;;8.88;1.67;;;;;;;23.69;29.79;100045.11;1851121;77;20975;-72
2021/05/11 11:16:41;;;;;;;2.20;1.45;;;;;;;23.85;29.73;100037.34;1847294;76;22651;-70
2021/05/11 11:19:17;;;;;;;4.50;1.35;;;;;;;23.93;29.48;100039.84;1847401;76;22640;-70
2021/05/11 11:24:38;;;;;;;2.00;1.20;;;;;;;23.94;29.87;100024.94;1781630;80;21007;-71
2021/05/11 11:27:13;;;;;;;1.80;1.60;;;;;;;24.13;29.66;100021.77;1870669;76;22609;-69
2021/05/11 11:29:47;;;;;;;2.17;1.57;;;;;;;24.26;29.60;100029.84;1847383;76;22662;-70
2021/05/11 11:32:22;;;;;;;4.65;1.30;;;;;;;24.36;29.64;100022.34;1847337;76;22796;-69
2021/05/11 11:34:59;;;;;;;6.05;2.55;;;;;;;24.42;29.09;100020.41;1871494;76;22721;-71
2021/05/11 11:37:36;;;;;;;3.25;1.52;;;;;;;24.35;29.22;100017.97;1883973;76;22052;-74
2021/05/11 11:40:12;;;;;;;3.33;1.30;;;;;;;24.32;29.38;100019.42;1889378;76;22618;-69
2021/05/11 11:42:57;;;;;;;2.77;2.20;;;;;;;24.31;29.33;100002.15;1818602;77;21587;-70
2021/05/11 11:45:34;;;;;;;6.00;1.85;;;;;;;24.47;29.32;100012.53;1889406;76;22568;-69
2021/05/11 11:48:11;;;;;;;7.22;2.65;;;;;;;24.58;29.30;100004.94;1873261;76;27634;-69
2021/05/11 11:50:55;;;;;;;5.03;1.80;;;;;;;24.74;29.49;100010.65;1868032;76;38024;-71
2021/05/11 11:53:34;;;;;;;3.40;1.00;;;;;;;24.87;29.10;99987.58;1847506;76;22698;-70
2021/05/11 11:56:36;;;;;;;7.62;2.20;;;;;;;24.93;29.17;99992.30;1839671;76;27905;-71
2021/05/11 11:59:06;;;;;;;3.00;1.75;;;;;;;25.00;28.85;99987.85;1832070;76;22729;-70
2021/05/11 12:01:41;;;;;;;7.83;1.30;;;;;;;25.06;29.21;99978.24;1847371;76;22690;-69
2021/05/11 12:04:19;;;;;;;2.90;1.37;;;;;;;25.13;29.09;99985.96;1843418;76;22826;-70
2021/05/11 12:07:02;;;;;;;6.60;2.62;;;;;;;25.21;28.68;99970.48;1847339;76;22647;-70
2021/05/11 12:09:46;;;;;;;1.27;1.17;;;;;;;25.23;28.52;99982.75;1817308;78;20974;-69
2021/05/11 12:12:19;;;;;;;7.72;2.62;;;;;;;25.25;28.81;99983.23;1842245;76;28302;-70
2021/05/11 12:14:54;;;;;;;3.02;1.10;;;;;;;25.32;28.74;99975.23;1850370;77;22658;-70
2021/05/11 12:17:33;;;;;;;6.10;2.08;;;;;;;25.42;28.62;99971.23;1850457;77;23257;-68
2021/05/11 12:20:25;;;;;;;2.95;1.92;;;;;;;25.43;28.60;99969.49;1846409;76;22644;-72
2021/05/11 12:23:14;;;;;;;10.38;2.42;;;;;;;25.61;28.51;99963.25;1847101;76;22750;-69
2021/05/11 12:26:05;;;;;;;3.58;1.35;;;;;;;25.78;28.07;99963.59;1881954;76;22775;-72
2021/05/11 12:28:57;;;;;;;;;;;;;;;25.87;27.89;99963.70;1819884;78;21336;-73
2021/05/11 12:31:46;;;;;;;2.67;1.10;;;;;;;26.13;27.47;99969.43;1883661;76;22688;-72
2021/05/11 12:34:24;;;;;;;8.93;2.05;;;;;;;26.21;27.46;99956.08;1847041;76;22712;-70
2021/05/11 12:37:01;;;;;;;6.08;1.80;;;;;;;26.26;27.47;99954.50;1882850;76;22656;-69
2021/05/11 12:39:54;;;;;;;3.52;1.52;;;;;;;26.34;26.84;99949.41;1816560;77;20971;-72
2021/05/11 12:42:30;;;;;;;5.35;1.45;;;;;;;26.46;26.19;99948.82;1834697;76;22830;-69
2021/05/11 12:45:13;;;;;;;12.97;2.57;;;;;;;26.47;26.14;99939.97;1835659;77;28383;-71
2021/05/11 12:47:56;;;;;;;4.40;1.62;;;;;;;26.54;26.25;99931.89;1847233;76;22686;-69
2021/05/11 12:50:40;;;;;;;10.58;2.10;;;;;;;26.64;25.91;99941.63;1831428;76;27748;-74
2021/05/11 12:53:33;;;;;;;11.33;2.52;;;;;;;26.58;26.08;99937.50;1775832;79;20991;-69
2021/05/11 12:56:18;;;;;;;5.62;2.05;;;;;;;26.52;26.61;99932.83;1889288;76;22683;-70
2021/05/11 13:16:53;;;;;;;1.12;1.00;;;;;;;27.10;26.31;99920.86;1721616;82;21215;-67
2021/05/11 13:25:19;;;;;;;4.40;1.30;;;;;;;26.99;26.41;99910.09;1866381;76;22705;-70
2021/05/11 13:30:59;;;;;;;7.15;1.62;;;;;;;27.40;26.31;99906.02;1840912;76;22732;-71
2021/05/11 13:33:47;;;;;;;12.25;3.08;;;;;;;27.53;25.91;99917.25;1831557;76;36309;-71
2021/05/11 13:36:22;;;;;;;9.20;2.33;;;;;;;27.50;26.17;99916.56;1817277;79;20963;-70
2021/05/11 13:38:57;;;;;;;2.92;2.12;;;;;;;27.64;25.92;99909.42;1880374;76;22790;-73
2021/05/11 13:41:32;;;;;;;6.30;2.20;;;;;;;27.80;26.09;99912.17;1886203;76;22594;-68
2021/05/11 13:44:07;;;;;;;8.85;2.85;;;;;;;27.82;25.85;99910.44;1837499;76;22669;-68
2021/05/11 13:46:42;;;;;;;3.50;1.98;;;;;;;27.83;25.96;99894.84;1837784;76;22734;-71
2021/05/11 13:49:29;;;;;;;11.00;2.45;;;;;;;27.80;25.94;99907.22;1812562;78;21566;-70
2021/05/11 13:52:04;;;;;;;9.23;3.40;;;;;;;27.83;25.91;99918.34;1873166;75;27704;-70
2021/05/11 13:54:39;;;;;;;11.75;3.42;;;;;;;27.79;26.01;99906.98;1825860;77;22822;-71
2021/05/11 14:03:04;;;;;;;4.65;2.25;;;;;;;28.13;25.75;99900.69;1847159;76;22626;-70
2021/05/11 14:05:39;;;;;;;5.65;2.65;;;;;;;28.18;25.64;99895.68;1835742;77;48610;-70
2021/05/11 14:08:14;;;;;;;11.60;2.22;;;;;;;28.16;25.80;99893.84;1847192;75;22925;-70
2021/05/11 14:10:48;;;;;;;6.25;2.62;;;;;;;27.95;25.93;99899.47;1819539;76;22687;-68
2021/05/11 14:13:24;;;;;;;4.85;1.85;;;;;;;27.92;25.74;99902.36;1847189;76;22839;-67
2021/05/11 14:15:59;;;;;;;11.43;2.20;;;;;;;27.93;25.94;99899.02;1776607;79;22824;-69
2021/05/11 14:18:34;;;;;;;2.75;1.55;;;;;;;27.91;26.59;99906.31;1881352;76;22737;-69
2021/05/11 14:21:20;;;;;;;5.20;2.90;;;;;;;27.96;26.05;99901.08;1784742;80;20979;-71
2021/05/11 14:23:56;;;;;;;11.68;2.35;;;;;;;28.21;26.06;99893.34;1771580;79;22851;-71
2021/05/11 14:26:31;;;;;;;13.13;3.05;;;;;;;28.27;25.50;99894.66;1791291;76;28451;-70
2021/05/11 14:29:06;;;;;;;10.95;2.42;;;;;;;28.33;25.45;99894.59;1822000;76;22679;-70
2021/05/11 14:31:41;;;;;;;3.90;1.52;;;;;;;28.46;25.52;99894.66;1847151;75;22742;-71
2021/05/11 14:34:17;;;;;;;11.65;1.82;;;;;;;28.51;25.59;99893.80;1776365;79;22715;-72
2021/05/11 14:37:04;;;;;;;5.90;1.90;;;;;;;28.44;25.67;99888.71;1748971;82;20996;-73
2021/05/11 14:39:39;;;;;;;6.33;2.17;;;;;;;28.34;25.81;99876.27;1889502;76;22572;-69
2021/05/11 14:42:14;;;;;;;6.78;2.30;;;;;;;28.32;25.86;99881.34;1872354;75;22802;-72
2021/05/11 14:45:00;;;;;;;8.13;2.30;;;;;;;28.24;26.16;99880.98;1796177;78;21055;-69
2021/05/11 14:48:09;;;;;;;5.03;2.42;;;;;;;28.26;26.21;99883.37;1789307;78;22814;-69
2021/05/11 14:50:45;;;;;;;11.17;3.10;;;;;;;28.14;26.46;99876.83;1870550;76;28348;-79
2021/05/11 14:53:19;;;;;;;4.85;2.10;;;;;;;28.28;26.40;99867.22;1774474;79;22694;-71
2021/05/11 14:55:56;;;;;;;6.25;1.67;;;;;;;28.32;26.39;99872.23;1884231;76;22655;-75
2021/05/11 14:58:31;;;;;;;5.28;2.15;;;;;;;28.32;26.50;99868.09;1830754;76;27713;-68
2021/05/11 15:01:06;;;;;;;9.60;2.33;;;;;;;28.38;26.49;99860.52;1847140;76;22699;-69
2021/05/11 15:03:52;;;;;;;6.75;1.75;;;;;;;28.41;26.73;99856.21;1789862;78;21157;-70
2021/05/11 15:06:28;;;;;;;16.87;2.87;;;;;;;28.48;26.60;99865.48;1776371;79;22776;-71
2021/05/11 15:09:04;;;;;;;8.35;2.33;;;;;;;28.30;26.86;99861.52;1761326;79;27955;-72
2021/05/11 15:11:51;;;;;;;8.48;2.27;;;;;;;28.09;27.12;99858.30;1742283;82;20971;-71
2021/05/11 15:14:26;;;;;;;6.80;2.27;;;;;;;28.05;27.09;99849.94;1816401;76;28375;-67
2021/05/11 15:19:57;;;;;;;8.05;1.90;;;;;;;28.05;27.14;99854.66;1834281;76;22718;-74
2021/05/11 15:22:43;;;;;;;11.18;3.08;;;;;;;27.87;27.09;99851.49;1811040;79;21027;-71
2021/05/11 15:25:19;;;;;;;4.83;2.10;;;;;;;27.91;27.39;99851.02;1814112;76;22729;-70
2021/05/11 15:27:55;;;;;;;8.93;2.40;;;;;;;27.93;27.35;99845.10;1846174;75;27737;-70
2021/05/11 15:30:31;;;;;;;10.23;2.50;;;;;;;28.02;27.58;99843.73;1845120;76;22726;-71
2021/05/11 15:33:08;;;;;;;14.65;2.30;;;;;;;28.10;27.47;99852.42;1798290;79;22740;-70
2021/05/11 15:35:43;;;;;;;7.70;2.90;;;;;;;28.09;27.50;99843.09;1807166;75;27795;-68
2021/05/11 15:38:19;;;;;;;7.03;2.33;;;;;;;28.20;27.52;99842.77;1829945;77;22729;-72
2021/05/11 15:41:06;;;;;;;4.92;1.87;;;;;;;28.17;27.46;99842.90;1758762;80;21059;-67
2021/05/11 15:43:41;;;;;;;13.60;2.75;;;;;;;28.25;27.29;99840.30;1865376;76;24126;-67
2021/05/11 15:46:17;;;;;;;9.68;2.80;;;;;;;28.17;27.47;99849.81;1737706;79;28009;-68
2021/05/11 15:48:52;;;;;;;5.33;1.90;;;;;;;28.26;27.33;99837.14;1843321;76;22600;-70
2021/05/11 15:51:40;;;;;;;6.83;2.15;;;;;;;28.18;27.20;99843.13;1798707;79;20995;-69
2021/05/11 15:54:15;;;;;;;13.95;1.85;;;;;;;28.17;27.42;99837.36;1818544;77;22638;-67
2021/05/11 15:56:50;;;;;;;3.95;1.80;;;;;;;28.13;27.49;99835.69;1838192;76;22671;-69
2021/05/11 15:59:26;;;;;;;8.70;1.92;;;;;;;28.07;27.55;99839.88;1793918;79;21613;-69
2021/05/11 16:02:01;;;;;;;4.40;2.37;;;;;;;28.05;27.69;99838.07;1831056;76;22762;-69
2021/05/11 16:04:36;;;;;;;12.63;2.95;;;;;;;27.89;27.82;99835.94;1807663;78;22726;-71
2021/05/11 16:07:12;;;;;;;7.65;2.37;;;;;;;27.79;28.06;99832.34;1846417;75;22668;-73
2021/05/11 16:09:47;;;;;;;9.58;3.20;;;;;;;27.77;28.11;99839.61;1816920;76;31957;-70
2021/05/11 16:12:23;;;;;;;14.18;3.17;;;;;;;27.83;27.89;99835.98;1846258;76;22788;-71
2021/05/11 16:15:18;;;;;;;7.58;2.20;;;;;;;27.86;27.94;99835.28;1737772;81;21026;-69
2021/05/11 16:17:55;;;;;;;16.50;12.10;;;;;;;27.92;27.96;99828.28;1839001;76;22889;-70
2021/05/11 16:20:29;;;;;;;11.88;3.80;;;;;;;27.91;27.87;99829.47;1835448;77;27948;-69
2021/05/11 16:23:06;;;;;;;8.68;4.00;;;;;;;27.90;27.87;99824.52;1845728;76;22694;-70
2021/05/11 16:25:52;;;;;;;8.28;3.35;;;;;;;27.67;28.10;99824.39;1774807;80;21542;-70